Time;durP1;ratioP1;P1;durP2;ratioP2;P2;SDS_P1;SDS_P2;PMS_P1;PMS_P2;Temp;Humidity;BMP_temperature;BMP_pressure;BME280_temperature;BME280_humidity;BME280_pressure;Samples;Min_cycle;Max_cycle;Signal;HPM_P1;HPM_P2
2021/08/02 05:02:12;;;;;;;12.73;6.05;;;;;;;33.71;38.18;94377.13;5353045;22;20056;-80
2021/08/02 05:04:37;;;;;;;14.18;6.25;;;;;;;35.03;35.49;94361.53;5033219;28;20029;-80
2021/08/02 05:07:03;;;;;;;13.98;6.50;;;;;;;34.62;36.17;94372.53;5012989;28;20032;-76
2021/08/02 05:09:28;;;;;;;13.38;6.25;;;;;;;35.00;35.63;94372.19;5011894;28;20018;-77
2021/08/02 05:11:54;;;;;;;10.75;5.57;;;;;;;35.35;36.56;94360.56;5029536;28;20025;-77
2021/08/02 05:14:19;;;;;;;14.32;5.43;;;;;;;34.26;38.83;94362.50;4996146;28;20041;-78
2021/08/02 05:16:45;;;;;;;11.98;5.90;;;;;;;35.05;37.32;94361.97;4994616;28;20021;-78
2021/08/02 05:19:11;;;;;;;16.52;5.97;;;;;;;34.93;34.43;94362.75;4977701;28;20095;-78
2021/08/02 05:21:37;;;;;;;16.13;6.22;;;;;;;36.65;32.80;94367.19;5007783;28;20037;-78
2021/08/02 05:24:03;;;;;;;10.80;6.10;;;;;;;36.40;32.01;94361.16;5009221;28;20022;-77
2021/08/02 05:26:29;;;;;;;14.93;6.40;;;;;;;33.00;35.64;94362.91;4972665;28;20031;-77
2021/08/02 05:28:54;;;;;;;12.82;6.45;;;;;;;34.57;34.96;94362.75;4989671;28;20104;-77
2021/08/02 05:31:20;;;;;;;9.75;6.03;;;;;;;34.90;34.76;94360.72;4987805;28;20031;-78
2021/08/02 05:33:45;;;;;;;12.80;6.43;;;;;;;36.07;32.19;94366.06;4982503;28;20033;-78
2021/08/02 05:36:11;;;;;;;17.33;6.78;;;;;;;36.96;31.54;94365.22;4989755;28;20462;-79
2021/08/02 05:38:36;;;;;;;12.10;6.13;;;;;;;38.22;29.03;94379.06;4979472;28;20026;-78
2021/08/02 05:41:02;;;;;;;13.02;5.47;;;;;;;37.83;29.85;94381.03;4989364;28;20023;-79
2021/08/02 05:43:27;;;;;;;15.82;5.50;;;;;;;37.88;30.29;94388.88;4991668;28;20045;-79
2021/08/02 05:45:53;;;;;;;18.30;5.95;;;;;;;39.92;28.90;94389.84;4966235;28;20042;-79
2021/08/02 05:48:18;;;;;;;17.10;5.15;;;;;;;38.55;30.17;94392.06;4994334;28;20022;-78
2021/08/02 05:50:44;;;;;;;15.32;6.45;;;;;;;35.19;34.39;94381.25;4992930;28;20034;-79
2021/08/02 05:53:09;;;;;;;12.07;6.22;;;;;;;34.63;34.09;94382.19;5003243;28;20033;-81
2021/08/02 05:55:35;;;;;;;15.63;6.55;;;;;;;32.36;39.69;94383.72;4974361;28;20034;-81
2021/08/02 05:58:00;;;;;;;16.67;7.25;;;;;;;33.45;36.90;94395.31;4987857;28;20033;-81
2021/08/02 06:00:26;;;;;;;14.23;6.82;;;;;;;36.77;32.97;94383.28;5006406;28;20022;-79
2021/08/02 06:02:52;;;;;;;13.25;7.30;;;;;;;33.23;36.80;94403.69;5009510;28;20414;-82
2021/08/02 06:05:17;;;;;;;14.23;6.57;;;;;;;38.11;30.99;94407.91;4947714;28;20038;-80
2021/08/02 06:07:43;;;;;;;11.15;6.80;;;;;;;38.56;30.16;94409.91;5007787;28;20626;-82
2021/08/02 06:10:11;;;;;;;10.25;5.85;;;;;;;40.12;28.21;94412.19;5010690;28;20029;-81
2021/08/02 06:12:37;;;;;;;12.90;6.22;;;;;;;35.47;33.58;94413.69;4992373;28;20100;-79
2021/08/02 06:15:03;;;;;;;12.00;6.07;;;;;;;38.45;31.58;94395.38;4983283;28;20038;-80
2021/08/02 06:17:28;;;;;;;11.02;6.20;;;;;;;37.02;32.10;94419.03;4959680;28;20026;-80
2021/08/02 06:19:54;;;;;;;13.20;6.10;;;;;;;36.60;33.20;94413.34;4966300;28;20369;-81
2021/08/02 06:22:19;;;;;;;6.88;5.85;;;;;;;38.38;32.29;94411.50;4975688;28;20025;-80
2021/08/02 06:24:44;;;;;;;12.27;6.40;;;;;;;37.02;30.76;94411.72;4978663;28;20036;-81
2021/08/02 06:27:10;;;;;;;12.70;6.13;;;;;;;38.84;28.97;94410.41;4956866;28;20038;-80
2021/08/02 06:29:36;;;;;;;10.95;5.75;;;;;;;38.75;28.72;94411.75;4975448;28;20506;-80
2021/08/02 06:32:01;;;;;;;13.00;5.63;;;;;;;40.73;27.73;94407.03;4988305;28;20523;-80
2021/08/02 06:34:27;;;;;;;15.27;6.40;;;;;;;38.53;29.04;94407.91;4996115;28;20030;-80
2021/08/02 06:36:54;;;;;;;10.57;5.75;;;;;;;40.41;27.04;94409.41;4980780;28;20041;-80
2021/08/02 06:39:19;;;;;;;;;;;;;;;42.70;23.62;94411.97;4971150;28;20474;-80
2021/08/02 06:41:45;;;;;;;13.90;5.70;;;;;;;43.40;24.21;94394.84;4971923;28;19913;-81
2021/08/02 06:44:10;;;;;;;20.83;6.13;;;;;;;41.44;26.47;94400.22;4970511;28;20026;-79
2021/08/02 06:46:36;;;;;;;13.40;5.50;;;;;;;43.31;24.99;94399.91;4989261;28;20142;-80
2021/08/02 06:49:01;;;;;;;13.33;5.80;;;;;;;43.06;24.74;94389.00;4970994;28;20105;-79
2021/08/02 06:51:27;;;;;;;11.90;5.90;;;;;;;43.09;24.39;94403.03;5003180;28;20029;-81
2021/08/02 06:53:53;;;;;;;10.77;6.10;;;;;;;42.00;25.46;94396.22;5009569;28;20026;-74
2021/08/02 06:56:19;;;;;;;9.85;5.93;;;;;;;45.47;22.73;94396.00;4997593;28;20037;-74
2021/08/02 06:58:44;;;;;;;9.40;6.15;;;;;;;46.43;22.55;94390.94;5012384;28;20022;-74
2021/08/02 07:01:10;;;;;;;11.63;6.55;;;;;;;45.23;23.57;94396.97;4964741;28;20053;-75
2021/08/02 07:03:35;;;;;;;12.32;6.95;;;;;;;46.58;21.73;94402.50;4960476;28;20049;-74
2021/08/02 07:06:00;;;;;;;13.70;7.18;;;;;;;43.45;24.76;94397.16;4997406;28;20038;-75
2021/08/02 07:08:26;;;;;;;10.82;7.15;;;;;;;39.99;29.34;94396.13;4994335;28;20081;-74
2021/08/02 07:10:52;;;;;;;16.25;7.35;;;;;;;39.19;29.77;94396.59;5001066;28;20029;-75
2021/08/02 07:13:17;;;;;;;13.30;6.60;;;;;;;38.52;32.70;94394.72;4988398;28;20049;-75
2021/08/02 07:15:42;;;;;;;12.82;6.43;;;;;;;38.32;29.66;94394.75;5017492;28;20030;-74
2021/08/02 07:18:08;;;;;;;11.40;6.53;;;;;;;36.23;31.77;94391.94;4969716;28;20026;-75
2021/08/02 07:20:34;;;;;;;10.55;6.18;;;;;;;38.58;28.96;94394.06;5007377;28;20030;-75
2021/08/02 07:23:00;;;;;;;15.63;6.40;;;;;;;44.06;23.41;94395.78;5025849;28;20029;-75
2021/08/02 07:25:25;;;;;;;12.10;6.50;;;;;;;45.60;22.40;94384.09;5003797;28;20040;-74
2021/08/02 07:27:51;;;;;;;10.40;6.00;;;;;;;41.32;25.86;94395.06;5025696;28;20546;-74
2021/08/02 07:30:16;;;;;;;17.48;6.57;;;;;;;42.72;24.88;94398.72;5008308;28;20040;-74
2021/08/02 07:32:42;;;;;;;15.82;6.65;;;;;;;44.60;24.60;94404.53;5006940;28;20026;-75
2021/08/02 07:35:07;;;;;;;14.60;6.18;;;;;;;45.89;22.47;94397.47;5004066;28;20042;-75
2021/08/02 07:37:33;;;;;;;12.93;6.38;;;;;;;45.26;22.50;94396.94;5006142;28;20030;-75
2021/08/02 07:39:58;;;;;;;15.15;6.35;;;;;;;39.20;29.46;94397.38;4974145;28;20037;-75
2021/08/02 07:42:25;;;;;;;16.10;6.25;;;;;;;36.70;29.30;94393.94;4987171;28;20026;-74
2021/08/02 07:44:52;;;;;;;12.77;6.72;;;;;;;35.92;32.67;94395.34;4984983;28;20503;-74
2021/08/02 07:47:18;;;;;;;16.20;7.75;;;;;;;37.83;34.32;94393.75;4969413;28;20117;-75
2021/08/02 07:49:43;;;;;;;14.23;7.45;;;;;;;37.84;34.13;94393.41;4987052;28;20026;-75
2021/08/02 07:52:09;;;;;;;12.15;8.95;;;;;;;38.06;37.20;94396.56;4985984;28;20480;-76
2021/08/02 07:54:34;;;;;;;19.80;9.30;;;;;;;37.63;38.85;94395.72;4973739;28;20037;-75
2021/08/02 07:57:00;;;;;;;17.20;9.68;;;;;;;36.73;41.18;94388.63;4970803;28;20038;-75
2021/08/02 07:59:25;;;;;;;15.98;9.75;;;;;;;36.62;39.98;94384.06;5004403;28;20046;-75
2021/08/02 08:01:51;;;;;;;19.10;9.63;;;;;;;36.91;39.89;94394.44;4961355;28;20049;-75
2021/08/02 08:04:16;;;;;;;11.80;9.13;;;;;;;36.90;40.04;94393.63;5019533;28;20552;-75
2021/08/02 08:06:46;;;;;;;13.50;9.88;;;;;;;36.83;38.51;94390.00;4992933;28;20510;-74
2021/08/02 08:09:11;;;;;;;14.13;9.68;;;;;;;36.24;41.03;94396.22;4986621;28;20030;-75
2021/08/02 08:11:37;;;;;;;14.15;9.95;;;;;;;36.36;40.14;94385.34;4966192;28;20037;-75
2021/08/02 08:14:02;;;;;;;14.02;9.57;;;;;;;36.52;40.82;94387.25;5001883;28;20029;-75
2021/08/02 08:16:28;;;;;;;15.55;8.98;;;;;;;36.10;40.77;94386.97;5030302;28;20030;-75
2021/08/02 08:18:55;;;;;;;18.73;9.57;;;;;;;36.45;41.36;94380.56;5011018;28;20026;-75
2021/08/02 08:21:20;;;;;;;20.27;9.63;;;;;;;36.36;40.47;94371.84;5001261;28;20463;-75
2021/08/02 08:23:45;;;;;;;11.90;8.73;;;;;;;35.99;40.05;94377.78;4989915;28;20077;-75
2021/08/02 08:26:11;;;;;;;12.23;8.73;;;;;;;36.60;39.84;94370.94;4972470;28;20053;-74
2021/08/02 08:28:36;;;;;;;17.10;8.88;;;;;;;36.53;40.33;94370.75;4972850;28;20092;-74
2021/08/02 08:31:02;;;;;;;15.77;8.98;;;;;;;35.97;39.41;94368.13;4987806;28;20084;-74
2021/08/02 08:33:27;;;;;;;18.48;9.23;;;;;;;36.01;38.53;94373.59;4957345;28;20034;-75
2021/08/02 08:35:54;;;;;;;18.83;8.80;;;;;;;36.14;38.60;94366.25;4971457;28;20026;-75
2021/08/02 08:38:20;;;;;;;15.07;8.18;;;;;;;36.29;36.67;94363.56;4990263;28;20030;-74
2021/08/02 08:40:46;;;;;;;15.45;7.75;;;;;;;36.51;35.81;94364.88;4972303;28;20054;-74
2021/08/02 08:43:18;;;;;;;19.15;8.20;;;;;;;36.21;36.79;94366.44;4977155;28;20057;-74
2021/08/02 08:45:43;;;;;;;15.75;8.57;;;;;;;36.05;38.09;94362.91;4965359;28;20022;-75
2021/08/02 08:48:09;;;;;;;15.82;8.80;;;;;;;36.22;39.23;94359.94;5006732;28;20132;-74
2021/08/02 08:50:40;;;;;;;19.38;9.15;;;;;;;35.42;37.61;94357.28;4992858;28;20033;-75
2021/08/02 08:53:06;;;;;;;16.98;8.70;;;;;;;36.26;37.76;94358.88;4991457;28;20033;-75
2021/08/02 08:55:32;;;;;;;17.60;7.75;;;;;;;36.22;35.62;94346.44;4994574;28;20052;-74
2021/08/02 08:58:03;;;;;;;13.43;7.32;;;;;;;36.48;35.95;94346.69;5014211;28;20034;-75
2021/08/02 09:00:28;;;;;;;18.10;7.50;;;;;;;36.37;33.56;94348.34;4999084;28;20113;-74
2021/08/02 09:02:54;;;;;;;16.52;7.15;;;;;;;37.10;32.85;94347.78;5015189;28;20045;-75
2021/08/02 09:05:20;;;;;;;19.77;7.35;;;;;;;36.80;33.48;94352.84;5023591;28;20022;-75
2021/08/02 09:07:46;;;;;;;18.92;6.38;;;;;;;37.05;33.40;94338.06;5002046;28;20030;-76
2021/08/02 09:10:18;;;;;;;13.57;6.68;;;;;;;36.95;32.16;94338.56;4971135;28;20018;-75
2021/08/02 09:12:48;;;;;;;13.55;6.60;;;;;;;36.85;30.44;94337.19;4986943;28;20038;-75
2021/08/02 09:15:14;;;;;;;15.15;6.50;;;;;;;37.35;31.98;94339.06;5015739;28;20049;-75
2021/08/02 09:17:39;;;;;;;14.88;6.65;;;;;;;37.80;31.49;94341.16;5003976;28;20026;-75
2021/08/02 09:20:06;;;;;;;15.60;6.20;;;;;;;37.18;31.71;94319.78;4996567;28;20034;-75
2021/08/02 09:22:33;;;;;;;22.95;6.68;;;;;;;36.88;32.08;94333.78;5002759;28;20025;-75
2021/08/02 09:25:05;;;;;;;15.38;6.38;;;;;;;37.25;31.72;94331.50;4973427;28;20026;-75
2021/08/02 09:27:33;;;;;;;18.23;7.05;;;;;;;37.17;32.44;94326.31;5006628;28;20068;-75
2021/08/02 09:29:58;;;;;;;13.45;6.80;;;;;;;37.42;31.04;94333.03;5024741;28;20057;-74
2021/08/02 09:32:24;;;;;;;18.67;6.70;;;;;;;37.58;31.73;94328.34;5027491;28;20473;-75
2021/08/02 09:34:49;;;;;;;20.75;7.28;;;;;;;37.75;30.66;94321.72;4987773;28;20030;-75
2021/08/02 09:37:22;;;;;;;13.35;5.82;;;;;;;37.00;31.32;94315.91;4989673;28;20030;-75
2021/08/02 09:39:47;;;;;;;22.45;7.13;;;;;;;37.31;30.79;94313.13;4980509;28;20057;-75
2021/08/02 09:42:13;;;;;;;17.05;6.10;;;;;;;37.81;30.98;94323.78;5004890;28;20061;-75
2021/08/02 09:44:38;;;;;;;19.52;6.05;;;;;;;37.52;29.32;94316.25;5006827;28;20026;-75
2021/08/02 09:47:07;;;;;;;12.77;5.82;;;;;;;37.86;30.57;94320.00;4989341;28;20026;-75
2021/08/02 09:49:47;;;;;;;18.95;6.00;;;;;;;37.51;29.31;94313.91;5008520;28;20030;-75
2021/08/02 09:52:12;;;;;;;20.55;6.10;;;;;;;37.58;30.44;94312.13;5025610;28;20084;-75
2021/08/02 09:54:38;;;;;;;17.80;7.03;;;;;;;37.55;30.69;94310.13;4993228;28;20022;-77
2021/08/02 09:57:05;;;;;;;21.08;5.88;;;;;;;37.54;29.10;94294.28;4953114;28;20088;-77
2021/08/02 09:59:31;;;;;;;19.70;7.25;;;;;;;37.87;29.46;94298.00;4954265;28;20030;-77
2021/08/02 10:01:57;;;;;;;14.13;6.45;;;;;;;38.01;31.08;94294.00;4969946;28;20435;-79
2021/08/02 10:04:23;;;;;;;21.13;6.55;;;;;;;37.85;29.74;94296.81;4954203;28;20026;-79
2021/08/02 10:06:49;;;;;;;24.85;6.00;;;;;;;37.65;29.66;94297.97;4965815;28;20025;-79
2021/08/02 10:09:14;;;;;;;18.58;6.00;;;;;;;38.11;28.00;94294.22;4988481;28;20030;-77
2021/08/02 10:11:40;;;;;;;16.98;5.70;;;;;;;37.74;27.74;94302.00;4999528;28;20413;-79
2021/08/02 10:14:07;;;;;;;21.30;6.38;;;;;;;37.67;27.96;94301.09;4989979;28;20034;-79
2021/08/02 10:16:32;;;;;;;19.15;6.00;;;;;;;37.71;29.51;94296.53;4982847;28;20095;-79
2021/08/02 10:19:05;;;;;;;25.08;5.68;;;;;;;37.45;23.91;94279.03;4989277;28;20037;-78
2021/08/02 10:21:45;;;;;;;21.05;6.25;;;;;;;37.45;26.58;94303.38;4973116;28;20025;-77
2021/08/02 10:24:11;;;;;;;15.18;5.30;;;;;;;37.56;26.23;94287.38;4972873;28;20033;-77
2021/08/02 10:26:37;;;;;;;22.88;5.90;;;;;;;37.42;23.67;94270.84;4973607;28;20036;-79
2021/08/02 10:29:04;;;;;;;22.08;5.47;;;;;;;37.53;24.56;94285.38;4956989;28;20418;-80
2021/08/02 10:31:47;;;;;;;17.27;5.93;;;;;;;38.01;25.55;94280.47;4989718;28;20032;-82
2021/08/02 10:34:14;;;;;;;17.20;5.45;;;;;;;37.97;24.73;94269.59;4989855;28;20527;-78
2021/08/02 10:36:39;;;;;;;14.88;5.07;;;;;;;37.77;24.26;94268.81;4972856;28;20101;-80
2021/08/02 10:39:04;;;;;;;14.63;5.00;;;;;;;38.14;24.04;94276.44;4990280;28;20652;-79
2021/08/02 10:41:31;;;;;;;18.83;5.72;;;;;;;38.12;25.68;94270.59;5008652;28;20037;-79
2021/08/02 10:43:58;;;;;;;21.05;5.47;;;;;;;38.32;25.49;94269.38;4979234;28;20029;-77
2021/08/02 10:46:25;;;;;;;20.63;6.13;;;;;;;37.66;24.36;94259.75;4996982;28;20052;-79
2021/08/02 10:48:52;;;;;;;19.27;6.38;;;;;;;37.67;23.44;94266.69;4984176;28;20558;-78
2021/08/02 10:51:22;;;;;;;25.88;6.25;;;;;;;37.75;24.54;94265.72;4970021;28;20053;-79
2021/08/02 10:54:01;;;;;;;18.80;5.47;;;;;;;38.01;23.50;94258.81;4981503;28;20041;-77
2021/08/02 10:56:28;;;;;;;17.23;6.20;;;;;;;38.26;23.99;94251.91;4987300;28;20042;-80
2021/08/02 10:58:56;;;;;;;18.85;5.13;;;;;;;38.14;23.29;94241.25;4983657;28;20774;-78
2021/08/02 11:01:23;;;;;;;21.42;5.65;;;;;;;38.25;22.98;94255.72;4987431;28;20046;-78
2021/08/02 11:03:49;;;;;;;16.23;6.35;;;;;;;38.31;23.95;94260.47;4988237;28;20038;-78
2021/08/02 11:06:18;;;;;;;20.98;5.10;;;;;;;38.31;22.07;94248.88;5002840;28;20087;-78
2021/08/02 11:08:56;;;;;;;18.55;6.40;;;;;;;38.30;21.43;94236.50;4985959;28;20044;-79
2021/08/02 11:11:34;;;;;;;20.15;5.15;;;;;;;38.02;22.01;94255.00;4958310;28;20404;-79
2021/08/02 11:14:09;;;;;;;17.63;4.40;;;;;;;37.83;22.17;94248.44;4983376;28;20041;-79
2021/08/02 11:16:50;;;;;;;19.85;4.78;;;;;;;38.04;22.20;94264.31;4985688;28;20029;-78
2021/08/02 11:19:23;;;;;;;25.48;5.20;;;;;;;37.95;22.71;94242.13;4976861;28;20095;-78
2021/08/02 11:22:00;;;;;;;19.60;5.28;;;;;;;38.31;21.56;94243.44;5000474;28;20773;-78
2021/08/02 11:24:29;;;;;;;19.60;5.10;;;;;;;38.15;21.50;94242.81;4983776;28;21313;-79
2021/08/02 11:26:56;;;;;;;26.17;5.90;;;;;;;37.67;22.68;94236.16;4823281;28;20058;-78
2021/08/02 11:29:32;;;;;;;17.60;4.90;;;;;;;37.60;21.73;94253.03;4866251;28;20039;-77
2021/08/02 11:32:00;;;;;;;15.73;4.93;;;;;;;37.79;22.74;94241.41;4979853;28;20161;-79
2021/08/02 11:34:26;;;;;;;;;;;;;;;37.79;21.68;94252.25;4998388;28;20026;-79
2021/08/02 11:37:07;;;;;;;13.13;4.53;;;;;;;38.22;22.70;94256.47;4964056;28;19913;-79
2021/08/02 11:39:37;;;;;;;18.98;5.32;;;;;;;38.42;23.68;94247.94;4978982;28;20109;-79
2021/08/02 11:42:04;;;;;;;17.15;5.30;;;;;;;38.50;22.25;94244.16;4969994;28;20109;-81
2021/08/02 11:44:30;;;;;;;17.73;5.78;;;;;;;38.00;23.34;94258.03;4978507;28;20032;-79
2021/08/02 11:46:56;;;;;;;18.35;5.30;;;;;;;37.83;23.49;94251.16;4977710;28;20022;-78
2021/08/02 11:49:21;;;;;;;17.58;4.88;;;;;;;38.38;22.63;94246.31;4980305;28;20531;-79
2021/08/02 11:51:47;;;;;;;18.23;5.72;;;;;;;38.34;22.88;94253.59;4971218;28;20033;-81
2021/08/02 11:54:23;;;;;;;20.70;5.13;;;;;;;38.08;23.92;94251.63;4971009;28;20033;-81
2021/08/02 11:56:49;;;;;;;15.02;5.43;;;;;;;37.92;22.41;94249.00;4971800;28;20516;-78
2021/08/02 11:59:22;;;;;;;14.88;5.32;;;;;;;38.22;23.66;94253.75;4976915;28;20127;-79
2021/08/02 12:01:48;;;;;;;16.67;4.80;;;;;;;38.18;22.01;94261.06;4980304;28;20578;-80
2021/08/02 12:04:13;;;;;;;14.23;4.60;;;;;;;37.71;23.07;94245.13;4960312;28;20154;-81
2021/08/02 12:06:58;;;;;;;15.10;4.75;;;;;;;38.04;22.85;94245.34;4981727;28;20035;-80
2021/08/02 12:09:37;;;;;;;26.88;5.95;;;;;;;37.77;23.11;94252.59;4970773;28;20029;-82
2021/08/02 12:12:04;;;;;;;21.48;5.05;;;;;;;37.72;24.12;94244.78;4985125;28;20156;-81
2021/08/02 12:14:30;;;;;;;22.52;5.97;;;;;;;37.98;24.89;94252.22;4969647;28;20030;-80
2021/08/02 12:17:06;;;;;;;19.15;5.72;;;;;;;37.86;22.50;94247.72;4984322;28;20062;-79
2021/08/02 12:19:51;;;;;;;20.45;5.63;;;;;;;37.95;23.87;94242.88;4975837;28;20515;-79
2021/08/02 12:22:17;;;;;;;13.70;5.10;;;;;;;38.06;23.61;94234.16;4981145;28;20023;-79
2021/08/02 12:24:52;;;;;;;25.65;6.28;;;;;;;37.94;23.86;94225.09;4977395;28;20030;-80
2021/08/02 12:27:18;;;;;;;17.60;5.07;;;;;;;37.95;23.98;94232.06;4985807;28;20113;-82
2021/08/02 12:29:43;;;;;;;24.75;5.45;;;;;;;38.07;23.43;94233.81;4999393;28;20045;-79
2021/08/02 12:32:09;;;;;;;26.38;5.63;;;;;;;38.04;20.71;94233.75;4999920;28;20030;-80
2021/08/02 12:34:34;;;;;;;24.05;5.43;;;;;;;38.30;19.95;94233.78;4998292;28;20484;-78
2021/08/02 12:37:00;;;;;;;26.55;6.78;;;;;;;38.26;20.35;94236.44;4976842;28;20023;-79
2021/08/02 12:39:29;;;;;;;30.15;6.35;;;;;;;38.15;21.41;94234.69;4984709;28;20084;-78
2021/08/02 12:41:54;;;;;;;27.20;5.95;;;;;;;38.22;19.96;94226.69;4983195;28;20495;-77
2021/08/02 12:44:20;;;;;;;25.52;6.72;;;;;;;38.28;20.89;94212.47;5001149;28;20030;-81
2021/08/02 12:46:45;;;;;;;18.80;6.50;;;;;;;38.20;21.75;94228.97;4984513;28;20022;-81
2021/08/02 12:49:11;;;;;;;24.38;4.97;;;;;;;38.10;21.12;94195.19;4982321;28;20644;-79
2021/08/02 12:51:37;;;;;;;24.73;5.15;;;;;;;38.40;21.26;94225.81;4977042;28;20038;-79
2021/08/02 12:54:02;;;;;;;26.40;6.50;;;;;;;38.06;20.53;94221.41;4977283;28;20042;-80
2021/08/02 12:56:27;;;;;;;27.92;7.07;;;;;;;38.05;20.90;94214.41;4987911;28;20081;-81
2021/08/02 12:58:53;;;;;;;30.23;8.10;;;;;;;38.08;20.93;94221.84;4982332;28;20035;-82
2021/08/02 13:01:19;;;;;;;34.50;8.43;;;;;;;37.94;21.06;94214.28;4975234;28;20046;-79
2021/08/02 13:03:44;;;;;;;28.90;7.47;;;;;;;38.07;22.28;94211.38;4977449;28;20033;-79
2021/08/02 13:06:10;;;;;;;33.10;8.10;;;;;;;37.77;20.95;94212.00;4995925;28;20051;-82
2021/08/02 13:08:36;;;;;;;24.73;7.60;;;;;;;37.87;20.63;94202.50;4986570;28;20101;-80
2021/08/02 13:11:02;;;;;;;22.95;7.95;;;;;;;37.77;21.82;94201.19;4979977;28;20035;-81
2021/08/02 13:13:28;;;;;;;21.38;6.72;;;;;;;37.95;21.72;94204.22;4967806;28;20057;-82
2021/08/02 13:15:54;;;;;;;28.02;7.25;;;;;;;37.87;21.23;94211.41;4972062;28;20496;-80
2021/08/02 13:18:19;;;;;;;25.63;7.70;;;;;;;37.92;22.10;94197.59;4983925;28;20022;-80
2021/08/02 13:20:45;;;;;;;20.70;7.05;;;;;;;37.99;21.78;94205.06;4968293;28;20417;-80
2021/08/02 13:28:38;;;;;;;15.20;5.35;;;;;;;37.60;20.69;94187.38;4968658;28;20085;-80
2021/08/02 13:31:03;;;;;;;29.40;5.50;;;;;;;37.84;19.89;94184.28;4998665;28;20037;-80
2021/08/02 13:33:30;;;;;;;20.58;5.65;;;;;;;38.20;20.53;94186.44;4977631;28;20430;-74
2021/08/02 13:35:56;;;;;;;22.33;5.18;;;;;;;37.94;20.52;94181.78;4927593;28;20483;-75
2021/08/02 13:38:23;;;;;;;19.23;4.93;;;;;;;36.98;20.97;94184.63;4955057;28;20019;-74
2021/08/02 13:40:49;;;;;;;19.52;5.57;;;;;;;37.71;20.03;94188.31;4965490;28;20388;-74
2021/08/02 13:43:15;;;;;;;22.60;6.18;;;;;;;37.33;20.78;94183.75;4829176;28;20038;-74
2021/08/02 13:45:41;;;;;;;22.85;6.10;;;;;;;37.51;20.79;94179.47;4976168;28;20042;-74
2021/08/02 13:48:06;;;;;;;22.33;5.00;;;;;;;37.44;20.89;94184.75;4966759;28;20035;-74
2021/08/02 13:50:32;;;;;;;26.65;6.00;;;;;;;37.35;21.69;94184.97;4941166;28;20517;-74
2021/08/02 13:52:57;;;;;;;21.55;5.32;;;;;;;37.25;22.02;94188.25;4928488;28;20038;-75
2021/08/02 13:55:23;;;;;;;23.92;5.03;;;;;;;37.14;21.99;94183.78;4947913;28;20046;-75
2021/08/02 13:57:49;;;;;;;25.77;6.22;;;;;;;37.30;21.22;94185.25;4955350;28;20381;-74
2021/08/02 14:00:15;;;;;;;20.52;6.05;;;;;;;37.63;20.43;94176.63;4963013;28;20046;-74
2021/08/02 14:02:41;;;;;;;15.90;5.22;;;;;;;37.37;20.63;94180.00;4962395;28;20050;-75
2021/08/02 14:05:08;;;;;;;26.23;5.45;;;;;;;37.51;21.15;94181.38;4965704;28;20034;-74
2021/08/02 14:07:33;;;;;;;28.60;6.43;;;;;;;37.37;21.55;94190.81;4937876;28;20097;-74
2021/08/02 14:09:58;;;;;;;22.83;5.88;;;;;;;37.73;21.08;94194.16;4957423;28;20035;-74
2021/08/02 14:12:25;;;;;;;19.75;5.57;;;;;;;37.23;20.50;94190.53;4953704;28;20034;-75
2021/08/02 14:14:50;;;;;;;24.17;5.70;;;;;;;37.35;21.10;94184.97;4967193;28;20492;-75
2021/08/02 14:17:18;;;;;;;16.80;5.57;;;;;;;37.18;21.40;94187.34;4959310;28;20084;-75
2021/08/02 14:19:44;;;;;;;;;;;;;;;37.33;20.88;94179.13;4951088;28;20114;-74
2021/08/02 14:22:10;;;;;;;24.00;5.40;;;;;;;36.98;21.71;94184.63;4962059;28;20004;-74
2021/08/02 14:24:35;;;;;;;20.80;5.20;;;;;;;37.01;22.19;94182.38;4967813;28;20031;-74
2021/08/02 14:27:01;;;;;;;20.75;6.13;;;;;;;37.07;22.42;94175.53;4948983;28;20046;-74
2021/08/02 14:29:27;;;;;;;22.00;5.60;;;;;;;37.24;21.38;94175.88;4938895;28;20103;-74
2021/08/02 14:31:52;;;;;;;31.85;6.18;;;;;;;37.15;22.12;94177.25;4938817;28;20520;-74
2021/08/02 14:34:18;;;;;;;24.55;5.97;;;;;;;36.92;22.25;94182.56;4957745;28;20200;-74
2021/08/02 14:36:44;;;;;;;25.50;7.85;;;;;;;36.46;22.59;94184.25;4947914;28;20431;-75
2021/08/02 14:39:10;;;;;;;28.15;6.38;;;;;;;36.11;22.69;94183.47;4932771;28;20062;-74
2021/08/02 14:41:37;;;;;;;17.30;6.22;;;;;;;35.75;24.01;94176.41;4949543;28;20038;-75
2021/08/02 14:44:02;;;;;;;25.95;6.55;;;;;;;35.34;25.10;94177.66;4965016;28;20031;-75
2021/08/02 14:46:29;;;;;;;19.60;6.45;;;;;;;35.62;24.68;94189.19;4949042;28;20042;-74
2021/08/02 14:48:56;;;;;;;22.42;5.93;;;;;;;35.96;24.70;94177.69;4952812;28;20038;-74
2021/08/02 14:51:46;;;;;;;22.80;6.53;;;;;;;36.19;24.75;94183.28;4932271;28;20405;-74
2021/08/02 14:54:12;;;;;;;30.55;6.65;;;;;;;36.39;23.50;94182.19;4983843;28;20493;-74
2021/08/02 14:56:38;;;;;;;25.98;6.30;;;;;;;36.17;24.23;94173.97;4957355;28;20038;-74
2021/08/02 14:59:04;;;;;;;19.95;6.57;;;;;;;36.17;24.51;94166.66;4985632;28;20026;-74
2021/08/02 15:01:37;;;;;;;20.65;5.90;;;;;;;36.32;23.87;94162.34;4979232;28;20068;-74
2021/08/02 15:04:03;;;;;;;16.70;6.38;;;;;;;36.58;23.53;94157.16;4949277;28;20532;-74
2021/08/02 15:06:30;;;;;;;31.73;7.53;;;;;;;36.68;22.19;94161.22;4956184;28;20030;-74
2021/08/02 15:08:56;;;;;;;19.77;6.70;;;;;;;36.57;21.84;94158.31;4975136;28;20035;-74
2021/08/02 15:11:25;;;;;;;20.10;6.88;;;;;;;36.21;23.54;94161.34;4972018;28;20440;-75
2021/08/02 15:13:51;;;;;;;;;;;;;;;36.31;22.53;94156.19;4984906;28;20034;-74
2021/08/02 15:16:19;;;;;;;36.58;7.47;;;;;;;36.03;23.58;94155.50;4976500;28;19941;-74
2021/08/02 15:18:52;;;;;;;19.58;6.10;;;;;;;36.30;23.56;94151.13;4974125;28;20117;-75
2021/08/02 15:21:24;;;;;;;25.67;7.55;;;;;;;36.13;24.21;94155.00;4969107;28;20034;-74
2021/08/02 15:23:50;;;;;;;32.08;7.28;;;;;;;36.02;24.34;94159.34;4957755;28;20089;-74
2021/08/02 15:26:15;;;;;;;30.00;7.63;;;;;;;35.95;23.56;94151.88;4906635;28;20046;-74
2021/08/02 15:28:50;;;;;;;32.85;7.85;;;;;;;36.14;23.15;94155.78;4969052;28;20027;-74
2021/08/02 15:31:19;;;;;;;33.75;8.10;;;;;;;36.10;23.44;94160.31;4929015;28;20042;-74
2021/08/02 15:33:46;;;;;;;34.22;7.80;;;;;;;36.07;23.42;94161.00;4979497;28;20033;-74
2021/08/02 15:36:13;;;;;;;31.00;7.78;;;;;;;36.01;23.56;94162.38;4986537;28;20088;-74
2021/08/02 15:38:39;;;;;;;28.67;7.53;;;;;;;35.64;24.47;94159.19;4949019;28;20561;-74
2021/08/02 15:41:06;;;;;;;22.73;7.57;;;;;;;35.70;25.06;94166.69;4968720;28;20026;-75
2021/08/02 15:43:32;;;;;;;26.67;7.70;;;;;;;35.63;25.02;94171.09;4957384;28;20481;-75
2021/08/02 15:45:59;;;;;;;27.92;9.18;;;;;;;35.63;25.83;94163.03;4957629;28;20046;-75
2021/08/02 15:48:24;;;;;;;28.60;8.15;;;;;;;35.60;24.92;94175.28;4959517;28;20034;-75
2021/08/02 15:50:50;;;;;;;23.60;7.63;;;;;;;35.28;25.68;94170.97;4964448;28;20515;-75
2021/08/02 15:53:16;;;;;;;18.92;7.57;;;;;;;34.98;25.86;94172.41;4968101;28;20156;-75
2021/08/02 15:55:42;;;;;;;21.38;6.85;;;;;;;34.99;24.51;94174.00;4971098;28;20396;-75
2021/08/02 15:58:08;;;;;;;21.10;7.80;;;;;;;34.82;24.39;94172.38;4959159;28;20113;-75
2021/08/02 16:00:35;;;;;;;19.35;7.90;;;;;;;34.54;22.93;94175.00;4967254;28;20480;-75
2021/08/02 16:03:04;;;;;;;15.18;8.88;;;;;;;34.51;22.42;94177.59;4961305;28;20112;-75
2021/08/02 16:05:31;;;;;;;31.10;10.25;;;;;;;34.38;21.86;94182.22;4949001;28;20170;-75
2021/08/02 16:08:02;;;;;;;25.92;9.48;;;;;;;34.44;21.44;94172.78;4947724;28;20034;-74
2021/08/02 16:10:28;;;;;;;27.92;9.38;;;;;;;34.57;21.79;94174.34;4952857;28;20049;-75
2021/08/02 16:12:58;;;;;;;21.20;8.80;;;;;;;34.16;22.93;94175.44;4972772;28;20035;-75
2021/08/02 16:15:24;;;;;;;21.70;10.02;;;;;;;34.08;22.90;94184.34;4970548;28;20031;-75
2021/08/02 16:17:50;;;;;;;20.58;9.75;;;;;;;33.96;22.83;94183.56;4973489;28;20491;-76
2021/08/02 16:20:21;;;;;;;29.23;10.10;;;;;;;33.77;23.63;94179.53;4967229;28;20022;-76
2021/08/02 16:22:46;;;;;;;25.50;9.95;;;;;;;33.74;23.13;94177.53;4958046;28;20118;-76
2021/08/02 16:25:12;;;;;;;21.73;10.35;;;;;;;33.55;23.57;94179.16;4953110;28;20119;-76
2021/08/02 16:27:37;;;;;;;18.27;9.93;;;;;;;33.40;24.10;94183.25;4961393;28;20042;-76
2021/08/02 16:30:05;;;;;;;21.08;10.25;;;;;;;33.23;25.95;94183.47;4962000;28;20669;-76
2021/08/02 16:32:31;;;;;;;24.30;10.60;;;;;;;32.91;25.82;94181.53;4978827;28;20031;-76